sensor_id;sensor_type;location;lat;lon;timestamp;P1;durP1;ratioP1;P2;durP2;ratioP2
76966;SDS011;65904;52.278;20.972;2023-03-23T00:01:41;27.80;;;16.27;;
76966;SDS011;65904;52.278;20.972;2023-03-23T00:04:29;24.60;;;14.40;;
76966;SDS011;65904;52.278;20.972;2023-03-23T00:07:15;29.42;;;16.25;;
76966;SDS011;65904;52.278;20.972;2023-03-23T00:10:06;25.23;;;15.32;;
76966;SDS011;65904;52.278;20.972;2023-03-23T00:12:52;29.88;;;17.27;;
76966;SDS011;65904;52.278;20.972;2023-03-23T00:15:41;29.38;;;16.05;;
76966;SDS011;65904;52.278;20.972;2023-03-23T00:18:27;30.02;;;16.02;;
76966;SDS011;65904;52.278;20.972;2023-03-23T00:21:15;28.77;;;17.27;;
76966;SDS011;65904;52.278;20.972;2023-03-23T00:26:49;27.17;;;15.63;;
76966;SDS011;65904;52.278;20.972;2023-03-23T00:29:35;29.15;;;16.23;;
76966;SDS011;65904;52.278;20.972;2023-03-23T00:32:22;27.48;;;16.10;;
76966;SDS011;65904;52.278;20.972;2023-03-23T00:35:11;27.55;;;15.32;;
76966;SDS011;65904;52.278;20.972;2023-03-23T00:37:59;26.65;;;14.93;;
76966;SDS011;65904;52.278;20.972;2023-03-23T00:40:46;26.63;;;15.18;;
76966;SDS011;65904;52.278;20.972;2023-03-23T00:43:33;30.10;;;16.60;;
76966;SDS011;65904;52.278;20.972;2023-03-23T00:46:21;30.65;;;17.02;;
76966;SDS011;65904;52.278;20.972;2023-03-23T00:49:07;27.58;;;16.85;;
76966;SDS011;65904;52.278;20.972;2023-03-23T00:51:54;28.33;;;16.55;;
76966;SDS011;65904;52.278;20.972;2023-03-23T00:54:43;29.92;;;16.70;;
76966;SDS011;65904;52.278;20.972;2023-03-23T00:57:29;23.25;;;15.52;;
76966;SDS011;65904;52.278;20.972;2023-03-23T01:00:15;28.60;;;16.00;;
76966;SDS011;65904;52.278;20.972;2023-03-23T01:05:49;27.02;;;14.38;;
76966;SDS011;65904;52.278;20.972;2023-03-23T01:08:35;29.00;;;14.50;;
76966;SDS011;65904;52.278;20.972;2023-03-23T01:11:25;27.25;;;16.05;;
76966;SDS011;65904;52.278;20.972;2023-03-23T01:14:12;27.00;;;15.82;;
76966;SDS011;65904;52.278;20.972;2023-03-23T01:17:00;25.65;;;15.43;;
76966;SDS011;65904;52.278;20.972;2023-03-23T01:19:46;28.02;;;15.73;;
76966;SDS011;65904;52.278;20.972;2023-03-23T01:22:33;29.08;;;15.80;;
76966;SDS011;65904;52.278;20.972;2023-03-23T01:25:19;24.80;;;14.50;;
76966;SDS011;65904;52.278;20.972;2023-03-23T01:28:07;31.15;;;16.15;;
76966;SDS011;65904;52.278;20.972;2023-03-23T01:30:58;29.73;;;16.00;;
76966;SDS011;65904;52.278;20.972;2023-03-23T01:33:45;30.80;;;16.58;;
76966;SDS011;65904;52.278;20.972;2023-03-23T01:36:32;26.90;;;15.63;;
76966;SDS011;65904;52.278;20.972;2023-03-23T01:39:20;28.20;;;15.60;;
76966;SDS011;65904;52.278;20.972;2023-03-23T01:42:07;26.02;;;15.48;;
76966;SDS011;65904;52.278;20.972;2023-03-23T01:51:03;28.33;;;15.98;;
76966;SDS011;65904;52.278;20.972;2023-03-23T01:53:54;27.40;;;14.93;;
76966;SDS011;65904;52.278;20.972;2023-03-23T01:56:45;27.00;;;15.23;;
76966;SDS011;65904;52.278;20.972;2023-03-23T01:59:33;25.83;;;15.98;;
76966;SDS011;65904;52.278;20.972;2023-03-23T02:02:46;27.45;;;15.52;;
76966;SDS011;65904;52.278;20.972;2023-03-23T02:05:36;26.50;;;15.10;;
76966;SDS011;65904;52.278;20.972;2023-03-23T02:08:33;27.15;;;15.15;;
76966;SDS011;65904;52.278;20.972;2023-03-23T02:11:21;29.15;;;15.93;;
76966;SDS011;65904;52.278;20.972;2023-03-23T02:14:07;25.00;;;14.82;;
76966;SDS011;65904;52.278;20.972;2023-03-23T02:16:55;21.02;;;14.07;;
76966;SDS011;65904;52.278;20.972;2023-03-23T02:19:59;24.55;;;14.77;;
76966;SDS011;65904;52.278;20.972;2023-03-23T02:23:15;29.50;;;15.63;;
76966;SDS011;65904;52.278;20.972;2023-03-23T02:26:29;29.08;;;15.25;;
76966;SDS011;65904;52.278;20.972;2023-03-23T02:29:38;22.63;;;13.55;;
76966;SDS011;65904;52.278;20.972;2023-03-23T02:32:54;21.58;;;13.07;;
76966;SDS011;65904;52.278;20.972;2023-03-23T02:36:03;22.55;;;13.07;;
76966;SDS011;65904;52.278;20.972;2023-03-23T02:38:57;22.38;;;14.00;;
76966;SDS011;65904;52.278;20.972;2023-03-23T02:41:50;23.10;;;12.88;;
76966;SDS011;65904;52.278;20.972;2023-03-23T02:44:40;26.35;;;13.95;;
76966;SDS011;65904;52.278;20.972;2023-03-23T02:47:30;23.73;;;14.10;;
76966;SDS011;65904;52.278;20.972;2023-03-23T02:50:20;25.73;;;13.77;;
76966;SDS011;65904;52.278;20.972;2023-03-23T02:53:10;23.30;;;13.63;;
76966;SDS011;65904;52.278;20.972;2023-03-23T02:55:59;25.42;;;13.75;;
76966;SDS011;65904;52.278;20.972;2023-03-23T02:58:47;23.17;;;13.52;;
76966;SDS011;65904;52.278;20.972;2023-03-23T03:04:52;24.23;;;13.50;;
76966;SDS011;65904;52.278;20.972;2023-03-23T03:07:47;20.50;;;13.18;;
76966;SDS011;65904;52.278;20.972;2023-03-23T03:10:43;20.63;;;12.77;;
76966;SDS011;65904;52.278;20.972;2023-03-23T03:13:39;22.25;;;13.30;;
76966;SDS011;65904;52.278;20.972;2023-03-23T03:16:33;26.13;;;12.98;;
76966;SDS011;65904;52.278;20.972;2023-03-23T03:19:24;20.35;;;12.98;;
76966;SDS011;65904;52.278;20.972;2023-03-23T03:22:13;21.88;;;12.75;;
76966;SDS011;65904;52.278;20.972;2023-03-23T03:24:59;21.08;;;12.52;;
76966;SDS011;65904;52.278;20.972;2023-03-23T03:27:48;24.65;;;13.88;;
76966;SDS011;65904;52.278;20.972;2023-03-23T03:30:44;23.35;;;12.45;;
76966;SDS011;65904;52.278;20.972;2023-03-23T03:33:33;25.00;;;12.98;;
76966;SDS011;65904;52.278;20.972;2023-03-23T03:36:20;18.80;;;12.38;;
76966;SDS011;65904;52.278;20.972;2023-03-23T03:39:10;22.08;;;12.68;;
76966;SDS011;65904;52.278;20.972;2023-03-23T03:42:00;20.13;;;12.20;;
76966;SDS011;65904;52.278;20.972;2023-03-23T03:44:47;23.58;;;13.70;;
76966;SDS011;65904;52.278;20.972;2023-03-23T03:47:36;19.08;;;12.23;;
76966;SDS011;65904;52.278;20.972;2023-03-23T03:50:21;22.85;;;14.38;;
76966;SDS011;65904;52.278;20.972;2023-03-23T03:53:08;26.50;;;13.30;;
76966;SDS011;65904;52.278;20.972;2023-03-23T03:55:55;25.88;;;14.65;;
76966;SDS011;65904;52.278;20.972;2023-03-23T03:58:45;20.70;;;13.15;;
76966;SDS011;65904;52.278;20.972;2023-03-23T04:01:52;22.52;;;12.25;;
76966;SDS011;65904;52.278;20.972;2023-03-23T04:04:40;19.67;;;13.23;;
76966;SDS011;65904;52.278;20.972;2023-03-23T04:07:27;23.40;;;12.88;;
76966;SDS011;65904;52.278;20.972;2023-03-23T04:10:15;20.25;;;12.30;;
76966;SDS011;65904;52.278;20.972;2023-03-23T04:13:03;22.63;;;13.10;;
76966;SDS011;65904;52.278;20.972;2023-03-23T04:16:05;23.38;;;13.55;;
76966;SDS011;65904;52.278;20.972;2023-03-23T04:18:54;20.95;;;12.40;;
76966;SDS011;65904;52.278;20.972;2023-03-23T04:21:43;21.92;;;13.32;;
76966;SDS011;65904;52.278;20.972;2023-03-23T04:24:33;22.60;;;13.35;;
76966;SDS011;65904;52.278;20.972;2023-03-23T04:27:22;24.95;;;12.48;;
76966;SDS011;65904;52.278;20.972;2023-03-23T04:30:09;20.17;;;12.93;;
76966;SDS011;65904;52.278;20.972;2023-03-23T04:32:57;22.13;;;13.57;;
76966;SDS011;65904;52.278;20.972;2023-03-23T04:35:47;21.95;;;12.95;;
76966;SDS011;65904;52.278;20.972;2023-03-23T04:38:42;23.67;;;13.07;;
76966;SDS011;65904;52.278;20.972;2023-03-23T04:41:35;25.73;;;13.57;;
76966;SDS011;65904;52.278;20.972;2023-03-23T04:44:48;23.67;;;13.35;;
76966;SDS011;65904;52.278;20.972;2023-03-23T04:47:43;20.10;;;12.75;;
76966;SDS011;65904;52.278;20.972;2023-03-23T04:50:39;23.08;;;12.43;;
76966;SDS011;65904;52.278;20.972;2023-03-23T04:53:36;21.52;;;11.80;;
76966;SDS011;65904;52.278;20.972;2023-03-23T04:56:23;135.43;;;63.78;;
76966;SDS011;65904;52.278;20.972;2023-03-23T05:02:17;22.38;;;12.25;;
76966;SDS011;65904;52.278;20.972;2023-03-23T05:05:04;20.00;;;11.15;;
76966;SDS011;65904;52.278;20.972;2023-03-23T05:07:52;57.90;;;26.17;;
76966;SDS011;65904;52.278;20.972;2023-03-23T05:10:42;27.05;;;13.23;;
76966;SDS011;65904;52.278;20.972;2023-03-23T05:13:34;20.08;;;11.57;;
76966;SDS011;65904;52.278;20.972;2023-03-23T05:16:21;21.95;;;12.38;;
76966;SDS011;65904;52.278;20.972;2023-03-23T05:19:07;21.67;;;11.80;;
76966;SDS011;65904;52.278;20.972;2023-03-23T05:21:56;23.50;;;11.27;;
76966;SDS011;65904;52.278;20.972;2023-03-23T05:24:48;22.92;;;12.10;;
76966;SDS011;65904;52.278;20.972;2023-03-23T05:27:38;18.05;;;12.40;;
76966;SDS011;65904;52.278;20.972;2023-03-23T05:30:38;21.45;;;11.48;;
76966;SDS011;65904;52.278;20.972;2023-03-23T05:33:27;22.00;;;12.20;;
76966;SDS011;65904;52.278;20.972;2023-03-23T05:36:39;18.35;;;11.43;;
76966;SDS011;65904;52.278;20.972;2023-03-23T05:39:46;20.17;;;11.05;;
76966;SDS011;65904;52.278;20.972;2023-03-23T05:42:33;18.80;;;11.95;;
76966;SDS011;65904;52.278;20.972;2023-03-23T05:45:31;19.83;;;11.25;;
76966;SDS011;65904;52.278;20.972;2023-03-23T05:48:17;61.08;;;24.63;;
76966;SDS011;65904;52.278;20.972;2023-03-23T05:51:03;17.73;;;11.02;;
76966;SDS011;65904;52.278;20.972;2023-03-23T05:53:52;18.25;;;11.05;;
76966;SDS011;65904;52.278;20.972;2023-03-23T05:56:39;19.83;;;11.48;;
76966;SDS011;65904;52.278;20.972;2023-03-23T05:59:36;17.83;;;11.10;;
76966;SDS011;65904;52.278;20.972;2023-03-23T06:02:26;18.88;;;11.13;;
76966;SDS011;65904;52.278;20.972;2023-03-23T06:05:14;21.05;;;11.65;;
76966;SDS011;65904;52.278;20.972;2023-03-23T06:08:06;19.92;;;11.50;;
76966;SDS011;65904;52.278;20.972;2023-03-23T06:10:52;20.55;;;12.25;;
76966;SDS011;65904;52.278;20.972;2023-03-23T06:13:39;18.15;;;11.32;;
76966;SDS011;65904;52.278;20.972;2023-03-23T06:16:28;21.95;;;11.90;;
76966;SDS011;65904;52.278;20.972;2023-03-23T06:19:17;17.35;;;10.50;;
76966;SDS011;65904;52.278;20.972;2023-03-23T06:22:12;18.73;;;11.10;;
76966;SDS011;65904;52.278;20.972;2023-03-23T06:25:20;16.15;;;10.10;;
76966;SDS011;65904;52.278;20.972;2023-03-23T06:28:07;17.63;;;10.35;;
76966;SDS011;65904;52.278;20.972;2023-03-23T06:30:58;20.70;;;11.25;;
76966;SDS011;65904;52.278;20.972;2023-03-23T06:33:44;17.33;;;10.30;;
76966;SDS011;65904;52.278;20.972;2023-03-23T06:36:45;20.75;;;10.43;;
76966;SDS011;65904;52.278;20.972;2023-03-23T06:39:36;17.23;;;10.25;;
76966;SDS011;65904;52.278;20.972;2023-03-23T06:42:49;16.42;;;9.68;;
76966;SDS011;65904;52.278;20.972;2023-03-23T06:45:53;17.02;;;10.35;;
76966;SDS011;65904;52.278;20.972;2023-03-23T06:48:59;17.23;;;10.35;;
76966;SDS011;65904;52.278;20.972;2023-03-23T06:51:55;15.60;;;9.95;;
76966;SDS011;65904;52.278;20.972;2023-03-23T06:54:42;14.32;;;9.70;;
76966;SDS011;65904;52.278;20.972;2023-03-23T06:57:30;17.30;;;10.50;;
76966;SDS011;65904;52.278;20.972;2023-03-23T07:00:17;16.73;;;9.63;;
76966;SDS011;65904;52.278;20.972;2023-03-23T07:03:04;15.82;;;9.82;;
76966;SDS011;65904;52.278;20.972;2023-03-23T07:05:51;14.45;;;9.10;;
76966;SDS011;65904;52.278;20.972;2023-03-23T07:08:42;17.63;;;9.35;;
76966;SDS011;65904;52.278;20.972;2023-03-23T07:11:32;23.05;;;9.38;;
76966;SDS011;65904;52.278;20.972;2023-03-23T07:14:25;13.75;;;8.50;;
76966;SDS011;65904;52.278;20.972;2023-03-23T07:17:11;13.73;;;8.35;;
76966;SDS011;65904;52.278;20.972;2023-03-23T07:20:10;13.90;;;9.15;;
76966;SDS011;65904;52.278;20.972;2023-03-23T07:22:57;13.82;;;8.40;;
76966;SDS011;65904;52.278;20.972;2023-03-23T07:26:26;13.27;;;8.38;;
76966;SDS011;65904;52.278;20.972;2023-03-23T07:29:14;11.48;;;7.80;;
76966;SDS011;65904;52.278;20.972;2023-03-23T07:32:02;13.60;;;8.15;;
76966;SDS011;65904;52.278;20.972;2023-03-23T07:37:50;12.77;;;7.57;;
76966;SDS011;65904;52.278;20.972;2023-03-23T07:40:38;13.88;;;8.63;;
76966;SDS011;65904;52.278;20.972;2023-03-23T07:43:35;13.07;;;8.18;;
76966;SDS011;65904;52.278;20.972;2023-03-23T07:46:39;14.90;;;7.88;;
76966;SDS011;65904;52.278;20.972;2023-03-23T07:49:34;12.50;;;8.02;;
76966;SDS011;65904;52.278;20.972;2023-03-23T07:52:33;11.25;;;7.05;;
76966;SDS011;65904;52.278;20.972;2023-03-23T07:55:20;12.10;;;7.00;;
76966;SDS011;65904;52.278;20.972;2023-03-23T07:58:29;11.05;;;6.72;;
76966;SDS011;65904;52.278;20.972;2023-03-23T08:01:17;9.93;;;7.00;;
76966;SDS011;65904;52.278;20.972;2023-03-23T08:04:23;10.57;;;7.30;;
76966;SDS011;65904;52.278;20.972;2023-03-23T08:07:34;11.50;;;6.78;;
76966;SDS011;65904;52.278;20.972;2023-03-23T08:10:35;9.57;;;6.13;;
76966;SDS011;65904;52.278;20.972;2023-03-23T08:13:35;9.60;;;5.20;;
76966;SDS011;65904;52.278;20.972;2023-03-23T08:16:34;9.45;;;6.50;;
76966;SDS011;65904;52.278;20.972;2023-03-23T08:19:56;10.38;;;5.32;;
76966;SDS011;65904;52.278;20.972;2023-03-23T08:22:59;10.43;;;5.63;;
76966;SDS011;65904;52.278;20.972;2023-03-23T08:25:57;8.35;;;5.55;;
76966;SDS011;65904;52.278;20.972;2023-03-23T08:28:52;8.02;;;5.05;;
76966;SDS011;65904;52.278;20.972;2023-03-23T08:31:58;10.40;;;5.50;;
76966;SDS011;65904;52.278;20.972;2023-03-23T08:34:59;9.32;;;5.55;;
76966;SDS011;65904;52.278;20.972;2023-03-23T08:38:14;12.30;;;6.45;;
76966;SDS011;65904;52.278;20.972;2023-03-23T08:41:20;8.32;;;5.18;;
76966;SDS011;65904;52.278;20.972;2023-03-23T08:44:28;9.68;;;5.90;;
76966;SDS011;65904;52.278;20.972;2023-03-23T08:47:33;8.18;;;5.30;;
76966;SDS011;65904;52.278;20.972;2023-03-23T08:50:38;8.70;;;5.07;;
76966;SDS011;65904;52.278;20.972;2023-03-23T08:53:37;8.00;;;4.95;;
76966;SDS011;65904;52.278;20.972;2023-03-23T08:56:50;12.90;;;5.90;;
76966;SDS011;65904;52.278;20.972;2023-03-23T08:59:52;8.15;;;5.90;;
76966;SDS011;65904;52.278;20.972;2023-03-23T09:03:13;7.38;;;4.82;;
76966;SDS011;65904;52.278;20.972;2023-03-23T09:06:18;7.40;;;4.53;;
76966;SDS011;65904;52.278;20.972;2023-03-23T09:09:04;8.55;;;5.00;;
76966;SDS011;65904;52.278;20.972;2023-03-23T09:11:51;6.97;;;4.25;;
76966;SDS011;65904;52.278;20.972;2023-03-23T09:14:39;6.20;;;4.75;;
76966;SDS011;65904;52.278;20.972;2023-03-23T09:17:25;7.47;;;4.43;;
76966;SDS011;65904;52.278;20.972;2023-03-23T09:20:13;7.15;;;3.55;;
76966;SDS011;65904;52.278;20.972;2023-03-23T09:23:00;6.63;;;4.72;;
76966;SDS011;65904;52.278;20.972;2023-03-23T09:25:47;7.68;;;4.88;;
76966;SDS011;65904;52.278;20.972;2023-03-23T09:28:33;5.15;;;3.90;;
76966;SDS011;65904;52.278;20.972;2023-03-23T09:31:19;6.68;;;4.82;;
76966;SDS011;65904;52.278;20.972;2023-03-23T09:34:06;7.35;;;3.92;;
76966;SDS011;65904;52.278;20.972;2023-03-23T09:36:55;8.45;;;4.75;;
76966;SDS011;65904;52.278;20.972;2023-03-23T09:39:42;6.95;;;3.88;;
76966;SDS011;65904;52.278;20.972;2023-03-23T09:42:31;7.38;;;4.00;;
76966;SDS011;65904;52.278;20.972;2023-03-23T09:45:28;5.97;;;4.03;;
76966;SDS011;65904;52.278;20.972;2023-03-23T09:48:30;7.60;;;3.78;;
76966;SDS011;65904;52.278;20.972;2023-03-23T09:51:29;7.10;;;4.07;;
76966;SDS011;65904;52.278;20.972;2023-03-23T09:54:26;7.70;;;3.70;;
76966;SDS011;65904;52.278;20.972;2023-03-23T09:57:15;3.97;;;3.00;;
76966;SDS011;65904;52.278;20.972;2023-03-23T10:00:06;6.75;;;4.00;;
76966;SDS011;65904;52.278;20.972;2023-03-23T10:03:00;6.95;;;3.55;;
76966;SDS011;65904;52.278;20.972;2023-03-23T10:05:52;5.35;;;3.63;;
76966;SDS011;65904;52.278;20.972;2023-03-23T10:08:41;5.00;;;3.45;;
76966;SDS011;65904;52.278;20.972;2023-03-23T10:11:35;6.65;;;3.38;;
76966;SDS011;65904;52.278;20.972;2023-03-23T10:14:33;5.97;;;2.95;;
76966;SDS011;65904;52.278;20.972;2023-03-23T10:17:28;5.15;;;2.78;;
76966;SDS011;65904;52.278;20.972;2023-03-23T10:23:32;4.07;;;2.97;;
76966;SDS011;65904;52.278;20.972;2023-03-23T10:26:35;2.53;;;1.90;;
76966;SDS011;65904;52.278;20.972;2023-03-23T10:29:28;3.58;;;1.80;;
76966;SDS011;65904;52.278;20.972;2023-03-23T10:32:18;3.15;;;2.33;;
76966;SDS011;65904;52.278;20.972;2023-03-23T10:35:10;3.83;;;2.08;;
76966;SDS011;65904;52.278;20.972;2023-03-23T10:38:00;4.90;;;2.65;;
76966;SDS011;65904;52.278;20.972;2023-03-23T10:40:50;5.40;;;2.78;;
76966;SDS011;65904;52.278;20.972;2023-03-23T10:43:40;7.75;;;2.78;;
76966;SDS011;65904;52.278;20.972;2023-03-23T10:46:31;3.45;;;2.83;;
76966;SDS011;65904;52.278;20.972;2023-03-23T10:49:22;4.68;;;2.85;;
76966;SDS011;65904;52.278;20.972;2023-03-23T10:52:24;4.63;;;2.97;;
76966;SDS011;65904;52.278;20.972;2023-03-23T10:55:14;4.50;;;3.15;;
76966;SDS011;65904;52.278;20.972;2023-03-23T10:58:03;5.03;;;3.47;;
76966;SDS011;65904;52.278;20.972;2023-03-23T11:00:52;4.57;;;2.72;;
76966;SDS011;65904;52.278;20.972;2023-03-23T11:03:40;5.35;;;3.00;;
76966;SDS011;65904;52.278;20.972;2023-03-23T11:06:29;4.32;;;2.97;;
76966;SDS011;65904;52.278;20.972;2023-03-23T11:09:21;6.05;;;2.53;;
76966;SDS011;65904;52.278;20.972;2023-03-23T11:12:19;4.30;;;3.08;;
76966;SDS011;65904;52.278;20.972;2023-03-23T11:15:16;2.40;;;2.20;;
76966;SDS011;65904;52.278;20.972;2023-03-23T11:18:21;5.95;;;2.70;;
76966;SDS011;65904;52.278;20.972;2023-03-23T11:21:11;2.97;;;2.50;;
76966;SDS011;65904;52.278;20.972;2023-03-23T11:23:59;3.08;;;1.90;;
76966;SDS011;65904;52.278;20.972;2023-03-23T11:26:46;3.30;;;2.40;;
76966;SDS011;65904;52.278;20.972;2023-03-23T11:32:19;4.00;;;2.15;;
76966;SDS011;65904;52.278;20.972;2023-03-23T11:35:15;2.85;;;2.00;;
76966;SDS011;65904;52.278;20.972;2023-03-23T11:38:03;3.92;;;2.20;;
76966;SDS011;65904;52.278;20.972;2023-03-23T11:40:51;2.97;;;1.92;;
76966;SDS011;65904;52.278;20.972;2023-03-23T11:43:39;4.05;;;2.35;;
76966;SDS011;65904;52.278;20.972;2023-03-23T11:46:31;2.80;;;2.30;;
76966;SDS011;65904;52.278;20.972;2023-03-23T11:49:35;3.22;;;2.40;;
76966;SDS011;65904;52.278;20.972;2023-03-23T11:52:32;3.72;;;1.95;;
76966;SDS011;65904;52.278;20.972;2023-03-23T11:55:25;3.55;;;2.30;;
76966;SDS011;65904;52.278;20.972;2023-03-23T11:58:16;3.08;;;1.90;;
76966;SDS011;65904;52.278;20.972;2023-03-23T12:01:05;5.03;;;2.05;;
76966;SDS011;65904;52.278;20.972;2023-03-23T12:04:00;3.38;;;2.03;;
76966;SDS011;65904;52.278;20.972;2023-03-23T12:07:03;3.20;;;1.90;;
76966;SDS011;65904;52.278;20.972;2023-03-23T12:10:04;3.15;;;1.90;;
76966;SDS011;65904;52.278;20.972;2023-03-23T12:13:05;2.67;;;2.22;;
76966;SDS011;65904;52.278;20.972;2023-03-23T12:16:00;3.20;;;1.98;;
76966;SDS011;65904;52.278;20.972;2023-03-23T12:18:57;4.88;;;1.98;;
76966;SDS011;65904;52.278;20.972;2023-03-23T12:21:52;5.15;;;2.33;;
76966;SDS011;65904;52.278;20.972;2023-03-23T12:24:49;3.63;;;2.30;;
76966;SDS011;65904;52.278;20.972;2023-03-23T12:27:42;3.67;;;2.33;;
76966;SDS011;65904;52.278;20.972;2023-03-23T12:30:35;4.75;;;2.35;;
76966;SDS011;65904;52.278;20.972;2023-03-23T12:33:28;4.25;;;1.90;;
76966;SDS011;65904;52.278;20.972;2023-03-23T12:36:33;3.72;;;2.15;;
76966;SDS011;65904;52.278;20.972;2023-03-23T12:42:47;3.42;;;1.83;;
76966;SDS011;65904;52.278;20.972;2023-03-23T12:48:49;6.15;;;2.63;;
76966;SDS011;65904;52.278;20.972;2023-03-23T12:51:40;4.60;;;2.80;;
76966;SDS011;65904;52.278;20.972;2023-03-23T12:54:34;5.00;;;2.90;;
76966;SDS011;65904;52.278;20.972;2023-03-23T12:57:24;3.72;;;2.30;;
76966;SDS011;65904;52.278;20.972;2023-03-23T13:00:18;3.88;;;2.67;;
76966;SDS011;65904;52.278;20.972;2023-03-23T13:03:10;4.93;;;2.80;;
76966;SDS011;65904;52.278;20.972;2023-03-23T13:06:04;6.63;;;3.17;;
76966;SDS011;65904;52.278;20.972;2023-03-23T13:08:56;4.00;;;2.45;;
76966;SDS011;65904;52.278;20.972;2023-03-23T13:11:46;4.60;;;2.75;;
76966;SDS011;65904;52.278;20.972;2023-03-23T13:14:37;6.15;;;2.80;;
76966;SDS011;65904;52.278;20.972;2023-03-23T13:17:37;7.78;;;4.03;;
76966;SDS011;65904;52.278;20.972;2023-03-23T13:20:32;4.50;;;3.58;;
76966;SDS011;65904;52.278;20.972;2023-03-23T13:23:37;6.18;;;3.22;;
76966;SDS011;65904;52.278;20.972;2023-03-23T13:26:28;6.95;;;2.63;;
76966;SDS011;65904;52.278;20.972;2023-03-23T13:29:15;6.57;;;3.45;;
76966;SDS011;65904;52.278;20.972;2023-03-23T13:32:05;4.65;;;2.65;;
76966;SDS011;65904;52.278;20.972;2023-03-23T13:34:56;5.22;;;3.42;;
76966;SDS011;65904;52.278;20.972;2023-03-23T13:37:46;7.68;;;3.53;;
76966;SDS011;65904;52.278;20.972;2023-03-23T13:40:35;4.85;;;2.60;;
76966;SDS011;65904;52.278;20.972;2023-03-23T13:43:28;6.22;;;3.35;;
76966;SDS011;65904;52.278;20.972;2023-03-23T13:46:25;5.45;;;2.70;;
76966;SDS011;65904;52.278;20.972;2023-03-23T13:49:16;4.80;;;3.42;;
76966;SDS011;65904;52.278;20.972;2023-03-23T13:52:16;4.18;;;2.25;;
76966;SDS011;65904;52.278;20.972;2023-03-23T13:55:17;4.25;;;2.05;;
76966;SDS011;65904;52.278;20.972;2023-03-23T13:58:11;2.72;;;2.00;;
76966;SDS011;65904;52.278;20.972;2023-03-23T14:01:12;5.18;;;2.20;;
76966;SDS011;65904;52.278;20.972;2023-03-23T14:04:03;4.28;;;2.33;;
76966;SDS011;65904;52.278;20.972;2023-03-23T14:06:51;3.47;;;2.17;;
76966;SDS011;65904;52.278;20.972;2023-03-23T14:09:44;2.75;;;2.10;;
76966;SDS011;65904;52.278;20.972;2023-03-23T14:12:32;5.32;;;2.53;;
76966;SDS011;65904;52.278;20.972;2023-03-23T14:15:19;4.25;;;2.05;;
76966;SDS011;65904;52.278;20.972;2023-03-23T14:18:05;4.25;;;2.30;;
76966;SDS011;65904;52.278;20.972;2023-03-23T14:20:52;5.07;;;2.47;;
76966;SDS011;65904;52.278;20.972;2023-03-23T14:23:38;5.22;;;3.08;;
76966;SDS011;65904;52.278;20.972;2023-03-23T14:26:26;5.55;;;2.90;;
76966;SDS011;65904;52.278;20.972;2023-03-23T14:29:12;5.07;;;3.25;;
76966;SDS011;65904;52.278;20.972;2023-03-23T14:31:59;7.45;;;2.72;;
76966;SDS011;65904;52.278;20.972;2023-03-23T14:34:47;3.72;;;2.58;;
76966;SDS011;65904;52.278;20.972;2023-03-23T14:37:34;3.38;;;2.55;;
76966;SDS011;65904;52.278;20.972;2023-03-23T14:40:21;6.78;;;3.55;;
76966;SDS011;65904;52.278;20.972;2023-03-23T14:43:14;6.15;;;3.22;;
76966;SDS011;65904;52.278;20.972;2023-03-23T14:46:03;7.40;;;3.70;;
76966;SDS011;65904;52.278;20.972;2023-03-23T14:48:52;7.45;;;3.30;;
76966;SDS011;65904;52.278;20.972;2023-03-23T14:51:46;5.85;;;3.17;;
76966;SDS011;65904;52.278;20.972;2023-03-23T14:54:33;5.18;;;3.25;;
76966;SDS011;65904;52.278;20.972;2023-03-23T15:00:14;8.40;;;3.53;;
76966;SDS011;65904;52.278;20.972;2023-03-23T15:03:02;5.75;;;3.42;;
76966;SDS011;65904;52.278;20.972;2023-03-23T15:05:51;7.45;;;3.67;;
76966;SDS011;65904;52.278;20.972;2023-03-23T15:08:40;5.43;;;3.78;;
76966;SDS011;65904;52.278;20.972;2023-03-23T15:11:28;6.43;;;3.70;;
76966;SDS011;65904;52.278;20.972;2023-03-23T15:14:17;6.68;;;3.47;;
76966;SDS011;65904;52.278;20.972;2023-03-23T15:17:10;6.70;;;3.40;;
76966;SDS011;65904;52.278;20.972;2023-03-23T15:20:08;5.60;;;3.42;;
76966;SDS011;65904;52.278;20.972;2023-03-23T15:22:55;6.03;;;3.50;;
76966;SDS011;65904;52.278;20.972;2023-03-23T15:25:47;5.22;;;3.35;;
76966;SDS011;65904;52.278;20.972;2023-03-23T15:28:39;5.93;;;3.55;;
76966;SDS011;65904;52.278;20.972;2023-03-23T15:31:25;5.28;;;3.50;;
76966;SDS011;65904;52.278;20.972;2023-03-23T15:34:19;6.78;;;4.05;;
76966;SDS011;65904;52.278;20.972;2023-03-23T15:37:16;5.75;;;3.20;;
76966;SDS011;65904;52.278;20.972;2023-03-23T15:40:13;6.50;;;3.50;;
76966;SDS011;65904;52.278;20.972;2023-03-23T15:43:08;5.57;;;3.15;;
76966;SDS011;65904;52.278;20.972;2023-03-23T15:46:02;8.73;;;3.25;;
76966;SDS011;65904;52.278;20.972;2023-03-23T15:48:52;7.72;;;3.53;;
76966;SDS011;65904;52.278;20.972;2023-03-23T15:51:41;8.60;;;3.13;;
76966;SDS011;65904;52.278;20.972;2023-03-23T15:54:29;10.80;;;6.30;;
76966;SDS011;65904;52.278;20.972;2023-03-23T15:57:17;22.70;;;12.20;;
76966;SDS011;65904;52.278;20.972;2023-03-23T16:00:03;4.50;;;2.95;;
76966;SDS011;65904;52.278;20.972;2023-03-23T16:02:57;4.40;;;2.78;;
76966;SDS011;65904;52.278;20.972;2023-03-23T16:05:45;6.47;;;3.35;;
76966;SDS011;65904;52.278;20.972;2023-03-23T16:08:33;7.15;;;3.38;;
76966;SDS011;65904;52.278;20.972;2023-03-23T16:11:24;6.50;;;3.60;;
76966;SDS011;65904;52.278;20.972;2023-03-23T16:14:12;4.57;;;3.45;;
76966;SDS011;65904;52.278;20.972;2023-03-23T16:21:33;4.78;;;3.05;;
76966;SDS011;65904;52.278;20.972;2023-03-23T16:24:21;57.13;;;29.95;;
76966;SDS011;65904;52.278;20.972;2023-03-23T16:27:08;4.10;;;3.25;;
76966;SDS011;65904;52.278;20.972;2023-03-23T16:29:54;4.00;;;2.92;;
76966;SDS011;65904;52.278;20.972;2023-03-23T16:32:41;3.63;;;2.80;;
76966;SDS011;65904;52.278;20.972;2023-03-23T16:35:27;6.97;;;3.22;;
76966;SDS011;65904;52.278;20.972;2023-03-23T16:38:14;4.75;;;2.92;;
76966;SDS011;65904;52.278;20.972;2023-03-23T16:41:02;3.42;;;2.70;;
76966;SDS011;65904;52.278;20.972;2023-03-23T16:43:49;7.30;;;3.40;;
76966;SDS011;65904;52.278;20.972;2023-03-23T16:46:35;4.85;;;3.10;;
76966;SDS011;65904;52.278;20.972;2023-03-23T16:49:21;3.72;;;2.35;;
76966;SDS011;65904;52.278;20.972;2023-03-23T16:52:08;3.33;;;2.55;;
76966;SDS011;65904;52.278;20.972;2023-03-23T16:54:54;5.30;;;3.28;;
76966;SDS011;65904;52.278;20.972;2023-03-23T16:57:41;6.32;;;2.95;;
76966;SDS011;65904;52.278;20.972;2023-03-23T17:00:28;4.22;;;3.15;;
76966;SDS011;65904;52.278;20.972;2023-03-23T17:03:14;5.55;;;3.25;;
76966;SDS011;65904;52.278;20.972;2023-03-23T17:06:01;6.55;;;3.28;;
76966;SDS011;65904;52.278;20.972;2023-03-23T17:08:47;17.77;;;8.95;;
76966;SDS011;65904;52.278;20.972;2023-03-23T17:11:34;4.50;;;2.50;;
76966;SDS011;65904;52.278;20.972;2023-03-23T17:14:22;4.53;;;2.80;;
76966;SDS011;65904;52.278;20.972;2023-03-23T17:17:08;4.45;;;3.15;;
76966;SDS011;65904;52.278;20.972;2023-03-23T17:19:54;4.60;;;2.83;;
76966;SDS011;65904;52.278;20.972;2023-03-23T17:22:41;4.43;;;2.67;;
76966;SDS011;65904;52.278;20.972;2023-03-23T17:25:27;5.15;;;3.30;;
76966;SDS011;65904;52.278;20.972;2023-03-23T17:28:14;6.65;;;3.58;;
76966;SDS011;65904;52.278;20.972;2023-03-23T17:31:02;4.78;;;3.83;;